createdAt,value
2019-03-11T00:02:35.621Z,4.00
2019-03-11T00:06:41.150Z,4.00
2019-03-11T00:10:46.483Z,4.10
2019-03-11T00:14:51.772Z,4.10
2019-03-11T00:18:57.023Z,4.10
2019-03-11T00:23:02.301Z,4.10
2019-03-11T00:27:08.580Z,4.10
2019-03-11T00:31:13.832Z,4.10
2019-03-11T00:35:19.101Z,4.10
2019-03-11T00:39:24.379Z,4.20
2019-03-11T00:43:29.758Z,4.30
2019-03-11T00:47:35.021Z,4.20
2019-03-11T00:51:40.282Z,4.00
2019-03-11T00:55:45.612Z,4.10
2019-03-11T00:59:50.860Z,4.10
2019-03-11T01:03:56.147Z,4.00
2019-03-11T01:08:01.389Z,4.00
2019-03-11T01:12:06.649Z,4.00
2019-03-11T01:16:11.924Z,4.10
2019-03-11T01:20:17.162Z,4.10
2019-03-11T01:24:22.421Z,4.00
2019-03-11T01:28:27.691Z,4.00
2019-03-11T01:32:32.943Z,4.00
2019-03-11T01:36:38.200Z,3.90
2019-03-11T01:40:43.496Z,3.80
2019-03-11T01:44:48.755Z,3.80
2019-03-11T01:48:54.041Z,3.70
2019-03-11T01:52:59.271Z,3.60
2019-03-11T01:57:04.541Z,3.70
2019-03-11T02:01:09.812Z,3.70
2019-03-11T02:05:15.034Z,3.70
2019-03-11T02:09:20.655Z,3.60
2019-03-11T02:13:25.895Z,3.60
2019-03-11T02:17:32.192Z,3.60
2019-03-11T02:21:37.427Z,3.50
2019-03-11T02:25:42.711Z,3.50
2019-03-11T02:29:47.964Z,3.40
2019-03-11T02:33:53.243Z,3.40
2019-03-11T02:37:58.557Z,3.40
2019-03-11T02:42:03.785Z,3.40
2019-03-11T02:46:09.094Z,3.40
2019-03-11T02:50:14.352Z,3.50
2019-03-11T02:54:19.616Z,3.50
2019-03-11T02:58:24.909Z,3.40
2019-03-11T03:02:40.605Z,3.40
2019-03-11T03:06:45.896Z,3.50
2019-03-11T03:10:51.140Z,3.40
2019-03-11T03:14:56.437Z,3.50
2019-03-11T03:19:01.663Z,3.50
2019-03-11T03:23:06.931Z,3.50
2019-03-11T03:27:12.228Z,3.50
2019-03-11T03:31:17.488Z,3.40
2019-03-11T03:35:22.811Z,3.40
2019-03-11T03:39:28.016Z,3.50
2019-03-11T03:43:33.294Z,3.50
2019-03-11T03:47:39.462Z,3.40
2019-03-11T03:51:44.702Z,3.50
2019-03-11T03:55:49.983Z,3.50
2019-03-11T03:59:55.233Z,3.50
2019-03-11T04:04:00.523Z,3.40
2019-03-11T04:08:05.765Z,3.50
2019-03-11T04:12:11.027Z,3.40
2019-03-11T04:16:16.363Z,3.40
2019-03-11T04:20:25.998Z,3.40
2019-03-11T04:24:31.266Z,3.40
2019-03-11T04:28:36.594Z,3.40
2019-03-11T04:32:41.878Z,3.40
2019-03-11T04:36:47.104Z,3.20
2019-03-11T04:40:52.404Z,3.20
2019-03-11T04:44:57.632Z,3.00
2019-03-11T04:49:02.885Z,3.10
2019-03-11T04:53:08.173Z,2.90
2019-03-11T04:57:13.416Z,2.90
2019-03-11T05:01:18.805Z,2.90
2019-03-11T05:05:24.931Z,2.80
2019-03-11T05:09:30.232Z,2.90
2019-03-11T05:13:35.475Z,2.70
2019-03-11T05:17:40.752Z,2.70
2019-03-11T05:21:45.980Z,2.80
2019-03-11T05:25:51.234Z,2.90
2019-03-11T05:29:56.488Z,3.00
2019-03-11T05:34:01.724Z,2.90
2019-03-11T05:38:06.955Z,2.80
2019-03-11T05:42:12.215Z,2.90
2019-03-11T05:46:17.653Z,2.90
2019-03-11T05:50:22.870Z,2.90
2019-03-11T05:54:28.130Z,2.90
2019-03-11T05:58:33.351Z,3.00
2019-03-11T06:02:38.611Z,3.00
2019-03-11T06:06:43.872Z,3.00
2019-03-11T06:10:49.095Z,3.00
2019-03-11T06:14:54.377Z,3.00
2019-03-11T06:18:59.608Z,3.00
2019-03-11T06:23:08.894Z,2.90
2019-03-11T06:27:13.285Z,3.00
2019-03-11T06:31:18.387Z,3.00
2019-03-11T06:35:23.640Z,3.10
2019-03-11T06:39:28.927Z,3.10
2019-03-11T06:43:34.254Z,3.40
2019-03-11T06:47:39.555Z,3.20
2019-03-11T06:51:44.793Z,3.20
2019-03-11T06:55:50.061Z,3.30
2019-03-11T06:59:55.336Z,3.40
2019-03-11T07:04:00.573Z,3.50
2019-03-11T07:08:05.835Z,3.40
2019-03-11T07:12:11.967Z,3.50
2019-03-11T07:16:17.232Z,3.70
2019-03-11T07:20:22.504Z,3.90
2019-03-11T07:24:27.808Z,3.90
2019-03-11T07:28:33.064Z,4.10
2019-03-11T07:32:38.292Z,4.00
2019-03-11T07:36:43.560Z,4.10
2019-03-11T07:40:48.873Z,4.10
2019-03-11T07:44:54.052Z,4.00
2019-03-11T07:48:59.322Z,4.00
2019-03-11T07:53:04.556Z,4.00
2019-03-11T07:57:11.034Z,4.20
2019-03-11T08:01:16.743Z,4.30
2019-03-11T08:05:21.987Z,4.30
2019-03-11T08:09:37.345Z,4.30
2019-03-11T08:13:34.116Z,4.30
2019-03-11T08:17:39.350Z,4.40
2019-03-11T08:21:44.620Z,4.30
2019-03-11T08:25:49.871Z,4.10
2019-03-11T08:29:55.122Z,4.20
2019-03-11T08:34:00.511Z,4.20
2019-03-11T08:38:05.757Z,4.30
2019-03-11T08:42:11.047Z,4.10
2019-03-11T08:46:16.307Z,4.30
2019-03-11T08:50:21.560Z,4.40
2019-03-11T08:54:26.839Z,4.50
2019-03-11T08:58:32.075Z,4.60
2019-03-11T09:02:37.370Z,4.70
2019-03-11T09:06:42.604Z,5.00
2019-03-11T09:10:47.861Z,4.90
2019-03-11T09:14:54.091Z,5.00
2019-03-11T09:18:59.361Z,5.00
2019-03-11T09:23:04.652Z,5.00
2019-03-11T09:27:09.901Z,4.90
2019-03-11T09:31:15.197Z,4.70
2019-03-11T09:35:20.446Z,4.70
2019-03-11T09:39:25.745Z,4.60
2019-03-11T09:43:30.967Z,4.40
2019-03-11T09:47:36.356Z,4.50
2019-03-11T09:51:41.522Z,4.30
2019-03-11T09:55:46.798Z,4.30
2019-03-11T09:59:52.041Z,4.50
2019-03-11T10:03:57.316Z,4.50
2019-03-11T10:08:02.655Z,4.40
2019-03-11T10:12:08.041Z,4.50
2019-03-11T10:16:13.284Z,4.70
2019-03-11T10:20:19.442Z,4.80
2019-03-11T10:24:24.708Z,4.60
2019-03-11T10:28:29.953Z,4.80
2019-03-11T10:32:35.239Z,5.20
2019-03-11T10:36:40.483Z,5.50
2019-03-11T10:40:45.752Z,5.70
2019-03-11T10:44:50.976Z,5.60
2019-03-11T10:48:56.228Z,5.60
2019-03-11T10:53:01.476Z,5.70
2019-03-11T10:57:06.747Z,5.50
2019-03-11T11:01:12.016Z,5.10
2019-03-11T11:05:17.344Z,4.80
2019-03-11T11:09:22.617Z,4.70
2019-03-11T11:13:27.990Z,4.60
2019-03-11T11:17:33.571Z,4.40
2019-03-11T11:21:38.825Z,4.50
2019-03-11T11:25:44.820Z,4.40
2019-03-11T11:29:50.100Z,4.30
2019-03-11T11:33:56.919Z,4.10
2019-03-11T11:38:01.846Z,4.40
2019-03-11T11:42:07.064Z,4.20
2019-03-11T11:46:11.970Z,4.10
2019-03-11T11:50:20.260Z,4.30
2019-03-11T11:54:25.204Z,4.20
2019-03-11T11:58:30.308Z,4.00
2019-03-11T12:02:35.352Z,3.90
2019-03-11T12:06:40.682Z,3.90
2019-03-11T12:10:45.812Z,4.10
2019-03-11T12:14:50.767Z,4.10
2019-03-11T12:18:56.037Z,4.20
2019-03-11T12:23:01.057Z,4.10
2019-03-11T12:27:06.185Z,4.10
2019-03-11T12:31:11.268Z,4.00
2019-03-11T12:35:16.415Z,3.90
2019-03-11T12:39:21.561Z,3.90
2019-03-11T12:43:26.809Z,3.80
2019-03-11T12:47:32.466Z,3.80
2019-03-11T12:51:49.199Z,3.70
2019-03-11T12:55:46.238Z,3.60
2019-03-11T12:59:51.704Z,3.60
2019-03-11T13:03:57.349Z,3.60
2019-03-11T13:08:02.700Z,3.50
2019-03-11T13:12:08.254Z,3.30
2019-03-11T13:16:13.605Z,3.20
2019-03-11T13:20:31.246Z,3.30
2019-03-11T13:24:36.799Z,3.20
2019-03-11T13:28:42.010Z,3.10
2019-03-11T13:32:47.618Z,3.20
2019-03-11T13:36:52.955Z,3.20
2019-03-11T13:40:58.506Z,3.30
2019-03-11T13:45:07.850Z,3.10
2019-03-11T13:49:13.101Z,3.10
2019-03-11T13:53:18.350Z,3.30
2019-03-11T13:57:23.683Z,3.50
2019-03-11T14:01:28.946Z,4.00
2019-03-11T14:05:34.504Z,4.70
2019-03-11T14:09:40.058Z,5.10
2019-03-11T14:13:47.046Z,5.40
2019-03-11T14:17:52.385Z,5.50
2019-03-11T14:21:57.951Z,5.50
2019-03-11T14:26:03.713Z,5.60
2019-03-11T14:30:22.173Z,5.40
2019-03-11T14:34:27.825Z,5.50
2019-03-11T14:38:33.386Z,5.40
2019-03-11T14:42:40.073Z,5.50
2019-03-11T14:46:46.232Z,5.50
2019-03-11T14:50:55.074Z,5.70
2019-03-11T14:55:00.519Z,5.80
2019-03-11T14:59:06.278Z,5.70
2019-03-11T15:03:12.984Z,5.90
2019-03-11T15:07:19.641Z,5.70
2019-03-11T15:11:25.399Z,5.60
2019-03-11T15:15:33.417Z,5.60
2019-03-11T15:19:39.073Z,5.70
2019-03-11T15:23:44.524Z,5.90
2019-03-11T15:27:50.081Z,5.90
2019-03-11T15:31:57.409Z,5.90
2019-03-11T15:36:04.466Z,5.70
2019-03-11T15:40:17.726Z,5.60
2019-03-11T15:44:24.691Z,5.50
2019-03-11T15:48:34.752Z,5.40
2019-03-11T15:52:40.408Z,5.30
2019-03-11T15:56:46.068Z,5.20
2019-03-11T16:00:53.364Z,5.10
2019-03-11T16:05:00.557Z,5.10
2019-03-11T16:09:07.338Z,5.10
2019-03-11T16:13:14.430Z,5.00
2019-03-11T16:17:20.093Z,5.00
2019-03-11T16:21:26.802Z,4.90
2019-03-11T16:25:32.571Z,4.90
2019-03-11T16:29:38.392Z,4.80
2019-03-11T16:33:46.509Z,4.70
2019-03-11T16:37:52.269Z,4.80
2019-03-11T16:41:59.462Z,4.50
2019-03-11T16:46:06.758Z,4.40
2019-03-11T16:50:18.124Z,4.20
2019-03-11T16:54:23.915Z,4.20
2019-03-11T16:58:31.309Z,4.00
2019-03-11T17:02:37.069Z,4.00
2019-03-11T17:06:43.651Z,4.10
2019-03-11T17:10:49.306Z,3.90
2019-03-11T17:14:54.964Z,3.90
2019-03-11T17:19:00.725Z,3.90
2019-03-11T17:23:06.383Z,4.10
2019-03-11T17:27:12.039Z,4.00
2019-03-11T17:31:17.902Z,4.10
2019-03-11T17:35:23.661Z,4.00
2019-03-11T17:39:30.652Z,4.10
2019-03-11T17:43:37.517Z,4.20
2019-03-11T17:47:44.528Z,4.20
2019-03-11T17:51:50.284Z,4.20
2019-03-11T17:55:57.478Z,4.10
2019-03-11T18:00:04.267Z,4.00
2019-03-11T18:04:11.763Z,4.10
2019-03-11T18:08:20.830Z,4.10
2019-03-11T18:12:26.152Z,4.00
2019-03-11T18:16:33.754Z,4.00
2019-03-11T18:20:39.518Z,3.90
2019-03-11T18:24:45.173Z,4.00
2019-03-11T18:28:55.449Z,4.00
2019-03-11T18:33:02.790Z,3.90
2019-03-11T18:37:08.595Z,3.90
2019-03-11T18:41:14.306Z,3.90
2019-03-11T18:45:20.251Z,4.00
2019-03-11T18:49:27.324Z,4.00
2019-03-11T18:53:34.519Z,3.90
2019-03-11T18:57:41.187Z,3.90
2019-03-11T19:01:48.430Z,3.70
2019-03-11T19:05:54.408Z,3.70
2019-03-11T19:10:01.271Z,3.50
2019-03-11T19:14:09.857Z,3.30
2019-03-11T19:18:15.925Z,3.20
2019-03-11T19:22:21.627Z,3.10
2019-03-11T19:26:27.362Z,2.90
2019-03-11T19:30:35.473Z,3.00
2019-03-11T19:34:43.390Z,2.80
2019-03-11T19:38:51.778Z,2.70
2019-03-11T19:42:58.650Z,2.60
2019-03-11T19:47:04.236Z,2.50
2019-03-11T19:51:10.137Z,2.60
2019-03-11T19:55:19.276Z,2.60
2019-03-11T19:59:25.007Z,2.50
2019-03-11T20:03:31.818Z,2.50
2019-03-11T20:07:38.320Z,2.30
2019-03-11T20:11:45.252Z,2.30
2019-03-11T20:15:53.988Z,2.10
2019-03-11T20:20:01.985Z,2.00
2019-03-11T20:24:08.596Z,2.10
2019-03-11T20:28:16.057Z,2.00
2019-03-11T20:32:24.138Z,2.00
2019-03-11T20:36:29.966Z,2.00
2019-03-11T20:40:37.087Z,2.10
2019-03-11T20:44:42.913Z,2.10
2019-03-11T20:48:49.617Z,2.10
2019-03-11T20:52:55.499Z,2.20
2019-03-11T20:57:02.786Z,2.20
2019-03-11T21:01:08.495Z,2.20
2019-03-11T21:05:20.244Z,2.30
2019-03-11T21:09:28.039Z,2.40
2019-03-11T21:13:33.809Z,2.50
2019-03-11T21:17:40.954Z,2.50
2019-03-11T21:21:47.414Z,2.50
2019-03-11T21:25:53.165Z,2.50
2019-03-11T21:29:59.051Z,2.60
2019-03-11T21:34:09.480Z,2.50
2019-03-11T21:38:13.084Z,2.50
2019-03-11T21:42:18.663Z,2.50
2019-03-11T21:46:25.795Z,2.60
2019-03-11T21:50:31.388Z,2.60
2019-03-11T21:54:37.145Z,2.50
2019-03-11T21:58:44.048Z,2.50
2019-03-11T22:02:51.049Z,2.60
2019-03-11T22:06:56.837Z,2.60
2019-03-11T22:11:03.622Z,2.60
2019-03-11T22:15:14.100Z,2.60
2019-03-11T22:19:19.335Z,2.60
2019-03-11T22:23:25.029Z,2.60
2019-03-11T22:27:30.550Z,2.70
2019-03-11T22:31:36.207Z,2.70
2019-03-11T22:35:44.531Z,2.70
2019-03-11T22:39:50.081Z,2.70
2019-03-11T22:43:55.536Z,2.80
2019-03-11T22:48:01.198Z,2.90
2019-03-11T22:52:06.542Z,2.80
2019-03-11T22:56:11.894Z,2.90
2019-03-11T23:00:26.854Z,2.90
2019-03-11T23:04:33.960Z,2.80
2019-03-11T23:08:39.515Z,2.70
2019-03-11T23:12:44.665Z,2.80
2019-03-11T23:16:49.678Z,2.70
2019-03-11T23:20:55.260Z,2.70
2019-03-11T23:25:00.358Z,2.70
2019-03-11T23:29:06.386Z,2.70
2019-03-11T23:33:11.364Z,2.60
2019-03-11T23:37:17.406Z,2.60
2019-03-11T23:41:22.389Z,2.50
2019-03-11T23:45:27.421Z,2.60
2019-03-11T23:49:32.400Z,2.70
2019-03-11T23:53:37.345Z,2.70
2019-03-11T23:57:42.338Z,2.70
